Time;durP1;ratioP1;P1;durP2;ratioP2;P2;SDS_P1;SDS_P2;PMS_P1;PMS_P2;Temp;Humidity;BMP_temperature;BMP_pressure;BME280_temperature;BME280_humidity;BME280_pressure;Samples;Min_cycle;Max_cycle;Signal;HPM_P1;HPM_P2
2023/04/13 00:01:44;;;;;;;9.50;6.97;;;8.40;99.90;;;;;;8262152;28;20310;-71
2023/04/13 00:05:46;;;;;;;10.60;7.43;;;8.40;99.90;;;;;;8261965;28;20279;-71
2023/04/13 00:09:49;;;;;;;9.50;6.87;;;8.50;99.90;;;;;;8253753;28;20242;-71
2023/04/13 00:13:52;;;;;;;9.07;6.60;;;8.50;99.90;;;;;;8255890;28;20197;-71
2023/04/13 00:17:53;;;;;;;10.13;6.97;;;8.50;99.90;;;;;;8253018;28;20210;-71
2023/04/13 00:21:54;;;;;;;9.13;5.90;;;8.50;99.90;;;;;;8259692;28;20195;-71
2023/04/13 00:25:55;;;;;;;10.47;6.87;;;8.50;99.90;;;;;;8242034;28;20205;-71
2023/04/13 00:29:56;;;;;;;9.00;6.67;;;8.50;99.90;;;;;;8259802;28;20223;-71
2023/04/13 00:33:57;;;;;;;12.30;7.50;;;8.50;99.90;;;;;;8261014;28;20191;-71
2023/04/13 00:38:10;;;;;;;11.90;8.90;;;8.50;99.90;;;;;;8254829;28;20250;-71
2023/04/13 00:42:18;;;;;;;10.77;7.87;;;8.60;99.90;;;;;;8271870;28;20187;-70
2023/04/13 00:46:21;;;;;;;11.53;7.07;;;8.50;99.90;;;;;;8251329;28;20203;-70
2023/04/13 00:50:22;;;;;;;9.47;6.60;;;8.50;99.90;;;;;;8237291;28;20220;-70
2023/04/13 00:54:30;;;;;;;8.37;6.20;;;8.40;99.90;;;;;;8218577;28;20228;-66
2023/04/13 00:58:32;;;;;;;9.43;6.20;;;8.40;99.90;;;;;;8238898;28;20323;-66
2023/04/13 01:02:34;;;;;;;10.87;7.43;;;8.40;99.90;;;;;;8249236;28;20253;-66
2023/04/13 01:06:42;;;;;;;12.33;8.03;;;8.40;99.90;;;;;;8255699;28;20219;-66
2023/04/13 01:11:17;;;;;;;11.97;8.00;;;8.40;99.90;;;;;;8252300;28;20188;-66
2023/04/13 01:15:18;;;;;;;12.07;7.07;;;8.40;99.90;;;;;;8257060;28;20184;-69
2023/04/13 01:19:44;;;;;;;10.57;6.70;;;8.30;99.90;;;;;;8257233;28;20200;-67
2023/04/13 01:24:20;;;;;;;9.30;6.57;;;8.40;99.90;;;;;;8253586;28;20179;-65
2023/04/13 01:28:22;;;;;;;8.73;6.27;;;8.30;99.90;;;;;;8257207;28;20240;-65
2023/04/13 01:32:23;;;;;;;10.93;6.93;;;8.30;99.90;;;;;;8250373;28;20184;-66
2023/04/13 01:36:29;;;;;;;9.97;6.27;;;8.30;99.90;;;;;;8256219;28;20191;-71
2023/04/13 01:40:31;;;;;;;10.63;6.73;;;8.30;99.90;;;;;;8250487;28;20188;-70
2023/04/13 01:44:33;;;;;;;10.17;6.00;;;8.30;99.90;;;;;;8252124;28;20201;-70
2023/04/13 01:48:55;;;;;;;7.37;5.70;;;8.20;99.90;;;;;;8245458;28;20230;-70
2023/04/13 01:53:16;;;;;;;8.57;5.77;;;8.20;99.90;;;;;;8248247;28;20179;-70
2023/04/13 01:57:22;;;;;;;7.80;5.97;;;8.20;99.90;;;;;;8254741;28;20227;-70
2023/04/13 02:01:24;;;;;;;7.57;5.60;;;8.10;99.90;;;;;;8252752;28;20206;-71
2023/04/13 02:05:26;;;;;;;8.63;6.27;;;8.00;99.90;;;;;;8250358;28;20195;-70
2023/04/13 02:09:27;;;;;;;9.07;6.63;;;7.90;1.00;;;;;;8251307;28;20195;-69
2023/04/13 02:13:39;;;;;;;9.97;6.60;;;7.80;1.00;;;;;;8254418;28;20179;-72
2023/04/13 02:17:43;;;;;;;8.43;6.13;;;7.70;1.00;;;;;;8254770;28;20253;-69
2023/04/13 02:21:45;;;;;;;8.70;5.60;;;7.60;1.00;;;;;;8252632;28;20195;-69
2023/04/13 02:25:46;;;;;;;6.80;5.10;;;7.50;1.00;;;;;;8249589;28;20211;-69
2023/04/13 02:29:48;;;;;;;7.00;5.60;;;7.40;1.00;;;;;;8255608;28;20191;-70
2023/04/13 02:33:50;;;;;;;11.13;6.10;;;7.30;1.00;;;;;;8258916;28;20302;-69
2023/04/13 02:37:52;;;;;;;7.50;5.50;;;7.20;1.00;;;;;;8257055;28;20187;-70
2023/04/13 02:42:01;;;;;;;10.93;7.20;;;7.10;1.00;;;;;;8256715;28;20298;-70
2023/04/13 02:46:02;;;;;;;6.57;5.67;;;7.10;1.00;;;;;;8254528;28;20228;-70
2023/04/13 02:50:03;;;;;;;8.60;5.87;;;7.00;1.00;;;;;;8256344;28;20195;-70
2023/04/13 02:54:11;;;;;;;7.70;5.27;;;7.00;1.00;;;;;;8252255;28;20250;-70
2023/04/13 02:58:31;;;;;;;9.17;5.47;;;7.00;15.00;;;;;;8238194;28;20230;-70
2023/04/13 03:02:34;;;;;;;7.33;5.63;;;7.00;54.40;;;;;;8251029;28;20286;-70
2023/04/13 03:06:35;;;;;;;7.90;5.77;;;6.90;92.20;;;;;;8249426;28;20385;-70
2023/04/13 03:10:39;;;;;;;8.40;5.67;;;6.80;99.90;;;;;;8252385;28;20218;-69
2023/04/13 03:14:40;;;;;;;12.70;7.00;;;6.70;99.90;;;;;;8251538;28;20261;-70
2023/04/13 03:18:41;;;;;;;9.77;7.13;;;6.60;99.90;;;;;;8266384;28;20191;-70
2023/04/13 03:22:48;;;;;;;15.80;10.17;;;6.50;99.90;;;;;;8257601;28;20239;-70
2023/04/13 03:26:52;;;;;;;108.10;37.20;;;6.30;99.90;;;;;;8252793;28;20215;-71
2023/04/13 03:30:53;;;;;;;92.93;32.97;;;6.20;99.90;;;;;;8257234;28;20270;-71
2023/04/13 03:34:57;;;;;;;80.53;25.40;;;6.00;1.00;;;;;;8257933;28;20191;-71
2023/04/13 03:38:59;;;;;;;61.67;18.93;;;5.90;1.00;;;;;;8272449;28;20188;-71
2023/04/13 03:43:04;;;;;;;23.23;9.40;;;5.80;1.00;;;;;;8257796;28;20191;-71
2023/04/13 03:47:08;;;;;;;12.60;7.33;;;5.60;99.90;;;;;;8257426;28;20230;-72
2023/04/13 03:51:12;;;;;;;9.20;6.03;;;5.40;99.90;;;;;;8248372;28;20180;-72
2023/04/13 03:55:17;;;;;;;8.27;5.60;;;5.20;99.90;;;;;;8248497;28;20228;-71
2023/04/13 03:59:20;;;;;;;6.47;5.30;;;5.20;99.90;;;;;;8257608;28;20226;-71
2023/04/13 04:03:24;;;;;;;6.97;5.23;;;5.00;99.90;;;;;;8256337;28;20198;-71
2023/04/13 04:07:25;;;;;;;6.57;5.43;;;5.00;1.00;;;;;;8251570;28;20258;-72
2023/04/13 04:11:34;;;;;;;9.33;5.70;;;4.90;1.00;;;;;;8240589;28;20199;-71
2023/04/13 04:15:37;;;;;;;20.77;9.20;;;5.00;99.90;;;;;;8253776;28;20211;-70
2023/04/13 04:19:39;;;;;;;33.83;14.17;;;5.00;99.90;;;;;;8269641;28;20349;-67
2023/04/13 04:23:43;;;;;;;23.33;9.93;;;5.10;99.90;;;;;;8259164;28;20196;-67
2023/04/13 04:27:45;;;;;;;12.93;6.53;;;5.20;99.90;;;;;;8253865;28;20219;-67
2023/04/13 04:31:51;;;;;;;22.63;14.60;;;5.20;99.90;;;;;;8259010;28;20204;-67
2023/04/13 04:35:55;;;;;;;39.20;15.87;;;5.30;99.90;;;;;;8259665;28;20196;-66
2023/04/13 04:39:56;;;;;;;22.23;10.27;;;5.30;80.80;;;;;;8255165;28;20198;-66
2023/04/13 04:44:01;;;;;;;20.27;9.57;;;5.30;1.00;;;;;;8257960;28;20188;-68
2023/04/13 04:48:02;;;;;;;18.27;8.30;;;5.40;1.00;;;;;;8256924;28;20235;-67
2023/04/13 04:52:11;;;;;;;11.83;7.57;;;5.50;1.00;;;;;;8264144;28;20310;-67
2023/04/13 04:56:12;;;;;;;9.87;6.33;;;5.70;1.00;;;;;;8257154;28;20223;-66
2023/04/13 05:00:16;;;;;;;14.07;7.33;;;5.80;1.00;;;;;;8268036;28;20198;-66
2023/04/13 05:04:18;;;;;;;10.77;5.93;;;6.10;99.90;;;;;;8266569;28;20203;-67
2023/04/13 05:08:19;;;;;;;16.07;10.20;;;6.40;99.90;;;;;;8258085;28;20254;-65
2023/04/13 05:12:20;;;;;;;21.53;12.17;;;6.70;91.20;;;;;;8255775;28;20260;-65
2023/04/13 05:16:22;;;;;;;23.33;13.20;;;7.00;1.00;;;;;;8259661;28;20190;-66
2023/04/13 05:20:23;;;;;;;23.40;12.67;;;7.30;1.00;;;;;;8266243;28;20236;-65
2023/04/13 05:24:24;;;;;;;19.53;10.50;;;7.60;99.90;;;;;;8260701;28;20197;-66
2023/04/13 05:28:25;;;;;;;15.77;9.07;;;7.80;99.90;;;;;;8262224;28;20211;-66
2023/04/13 05:32:26;;;;;;;16.80;8.33;;;8.10;99.90;;;;;;8260484;28;20183;-65
2023/04/13 05:36:30;;;;;;;9.63;6.90;;;8.30;99.90;;;;;;8254528;28;20280;-66
2023/04/13 05:40:34;;;;;;;9.83;6.87;;;8.70;99.90;;;;;;8231650;28;20245;-67
2023/04/13 05:44:53;;;;;;;11.63;7.13;;;9.00;1.00;;;;;;8239751;28;20237;-71
2023/04/13 05:48:57;;;;;;;11.20;7.30;;;9.20;1.00;;;;;;8235448;28;20247;-65
2023/04/13 05:52:58;;;;;;;7.40;4.93;;;9.40;1.00;;;;;;8260777;28;20223;-65
2023/04/13 05:56:59;;;;;;;5.97;4.30;;;9.60;1.00;;;;;;8249971;28;20255;-66
2023/04/13 06:01:11;;;;;;;5.93;3.40;;;9.90;1.00;;;;;;8231068;28;20202;-64
2023/04/13 06:05:13;;;;;;;5.50;4.07;;;10.50;99.90;;;;;;8249958;28;20204;-66
2023/04/13 06:09:14;;;;;;;3.40;2.33;;;10.90;99.90;;;;;;8254014;28;20219;-66
2023/04/13 06:13:16;;;;;;;6.37;2.20;;;11.10;99.90;;;;;;8248441;28;20179;-66
2023/04/13 06:17:17;;;;;;;3.90;2.70;;;11.10;99.90;;;;;;8253501;28;20195;-66
2023/04/13 06:21:18;;;;;;;2.80;2.27;;;11.20;99.90;;;;;;8242167;28;20256;-68
2023/04/13 06:25:19;;;;;;;4.87;2.37;;;11.30;99.90;;;;;;8251251;28;20313;-66
2023/04/13 06:29:29;;;;;;;3.80;2.20;;;11.20;99.90;;;;;;8248128;28;20226;-66
2023/04/13 06:33:33;;;;;;;2.20;1.87;;;11.10;99.90;;;;;;8254167;28;20206;-66
2023/04/13 06:37:35;;;;;;;3.40;1.90;;;11.20;99.90;;;;;;8260443;28;20205;-71
2023/04/13 06:41:36;;;;;;;2.83;1.40;;;11.20;99.90;;;;;;8260983;28;20191;-71
2023/04/13 06:45:38;;;;;;;1.37;1.13;;;11.00;99.90;;;;;;8253137;28;20223;-71
2023/04/13 06:49:39;;;;;;;2.30;1.17;;;10.90;99.90;;;;;;8251299;28;20195;-71
2023/04/13 06:53:40;;;;;;;1.70;1.10;;;10.90;99.90;;;;;;8259239;28;20232;-72
2023/04/13 06:57:42;;;;;;;1.77;1.30;;;11.20;99.90;;;;;;8255258;28;20230;-72
2023/04/13 07:01:50;;;;;;;2.13;1.10;;;11.20;99.90;;;;;;8259878;28;20192;-65
2023/04/13 07:05:51;;;;;;;3.70;1.30;;;11.20;99.90;;;;;;8255128;28;20215;-65
2023/04/13 07:09:58;;;;;;;1.70;1.03;;;11.00;99.90;;;;;;8257277;28;20205;-71
2023/04/13 07:13:59;;;;;;;3.83;1.00;;;10.60;99.90;;;;;;8262960;28;20187;-69
2023/04/13 07:18:03;;;;;;;1.23;0.70;;;10.40;99.90;;;;;;8256041;28;20190;-69
2023/04/13 07:22:04;;;;;;;2.07;1.07;;;10.30;99.90;;;;;;8263556;28;20217;-68
2023/04/13 07:26:10;;;;;;;1.47;0.77;;;10.20;99.90;;;;;;8269282;28;20212;-72
2023/04/13 07:30:12;;;;;;;0.97;0.80;;;10.10;99.90;;;;;;8294158;28;20189;-74
2023/04/13 07:34:13;;;;;;;0.80;0.60;;;10.10;99.90;;;;;;8291087;28;20205;-72
2023/04/13 07:38:14;;;;;;;2.33;0.90;;;10.20;99.90;;;;;;8300332;28;20215;-74
2023/04/13 07:42:15;;;;;;;2.17;0.77;;;10.20;99.90;;;;;;8310288;28;20265;-73
2023/04/13 07:46:26;;;;;;;1.57;0.80;;;10.40;99.90;;;;;;8272117;28;20226;-68
2023/04/13 07:50:27;;;;;;;3.00;0.80;;;10.70;99.90;;;;;;8263849;28;20196;-69
2023/04/13 07:54:28;;;;;;;1.37;0.60;;;11.00;99.90;;;;;;8273233;28;20194;-72
2023/04/13 07:58:29;;;;;;;1.83;0.80;;;11.10;99.90;;;;;;8294333;28;20209;-73
2023/04/13 08:02:30;;;;;;;1.13;0.50;;;11.30;99.90;;;;;;8296157;28;20195;-73
2023/04/13 08:06:34;;;;;;;1.77;0.60;;;11.30;99.90;;;;;;8292696;28;20203;-73
2023/04/13 08:10:35;;;;;;;2.67;0.87;;;11.50;99.90;;;;;;8284064;28;20203;-72
2023/04/13 08:14:36;;;;;;;1.90;0.87;;;11.50;99.90;;;;;;8265165;28;20188;-70
2023/04/13 08:18:38;;;;;;;1.20;0.90;;;11.30;99.90;;;;;;8267858;28;20195;-69
2023/04/13 08:22:44;;;;;;;1.40;1.00;;;11.40;99.90;;;;;;8244961;28;20203;-69
2023/04/13 08:26:45;;;;;;;2.50;1.03;;;11.40;99.90;;;;;;8261856;28;20219;-69
2023/04/13 08:30:49;;;;;;;1.73;0.87;;;11.30;99.90;;;;;;8267272;28;20218;-69
2023/04/13 08:34:50;;;;;;;2.73;1.00;;;11.30;99.90;;;;;;8267254;28;20198;-69
2023/04/13 08:38:52;;;;;;;1.20;0.70;;;11.20;99.90;;;;;;8267654;28;20202;-70
2023/04/13 08:43:00;;;;;;;2.73;0.90;;;11.10;90.20;;;;;;8262881;28;20202;-68
2023/04/13 08:47:01;;;;;;;1.30;0.73;;;11.10;49.10;;;;;;8259453;28;20250;-70
2023/04/13 08:51:04;;;;;;;2.37;0.83;;;11.10;40.50;;;;;;8258510;28;20190;-70
2023/04/13 08:55:05;;;;;;;1.30;0.83;;;10.90;41.80;;;;;;8264059;28;20294;-73
2023/04/13 08:59:07;;;;;;;2.67;0.57;;;10.80;39.60;;;;;;8280411;28;20209;-72
2023/04/13 09:03:31;;;;;;;1.23;0.67;;;10.80;70.90;;;;;;8269719;28;20186;-69
2023/04/13 09:07:33;;;;;;;1.77;0.80;;;11.00;36.50;;;;;;8253440;28;20225;-69
2023/04/13 09:11:38;;;;;;;0.83;0.70;;;11.00;40.10;;;;;;8269165;28;20190;-70
2023/04/13 09:15:40;;;;;;;2.27;0.70;;;10.90;42.70;;;;;;8251379;28;20203;-69
2023/04/13 09:19:41;;;;;;;1.20;0.90;;;10.80;46.60;;;;;;8265666;28;20198;-69
2023/04/13 09:23:56;;;;;;;3.10;1.00;;;10.90;99.90;;;;;;8265323;28;20191;-69
2023/04/13 09:28:02;;;;;;;1.63;0.73;;;11.10;99.90;;;;;;8281310;28;20215;-74
2023/04/13 09:32:06;;;;;;;1.27;0.80;;;11.10;99.90;;;;;;8276035;28;20269;-75
2023/04/13 09:36:14;;;;;;;1.10;0.90;;;11.20;99.90;;;;;;8283596;28;20197;-74
2023/04/13 09:40:17;;;;;;;1.53;0.90;;;11.00;98.50;;;;;;8280164;28;20191;-74
2023/04/13 09:44:29;;;;;;;1.00;0.60;;;10.70;99.90;;;;;;8295917;28;20194;-74
2023/04/13 09:48:33;;;;;;;1.30;0.80;;;10.50;99.90;;;;;;8279352;28;20218;-73
2023/04/13 09:52:34;;;;;;;0.90;0.70;;;10.50;99.90;;;;;;8288808;28;20200;-75
2023/04/13 09:56:55;;;;;;;1.00;0.60;;;10.60;99.90;;;;;;8277444;28;20225;-74
2023/04/13 10:01:02;;;;;;;0.90;0.90;;;10.70;99.90;;;;;;8273383;28;20213;-74
2023/04/13 10:05:05;;;;;;;1.77;0.63;;;10.80;99.90;;;;;;8276355;28;20187;-73
2023/04/13 10:09:20;;;;;;;1.63;0.60;;;11.10;99.90;;;;;;8276582;28;20213;-74
2023/04/13 10:13:28;;;;;;;1.83;0.57;;;11.40;99.90;;;;;;8275992;28;20198;-74
2023/04/13 10:17:32;;;;;;;0.80;0.40;;;11.70;99.90;;;;;;8269930;28;20245;-74
2023/04/13 10:21:39;;;;;;;0.90;0.53;;;11.90;99.90;;;;;;8274193;28;20193;-74
2023/04/13 10:25:57;;;;;;;1.07;0.50;;;12.20;99.90;;;;;;8275433;28;20191;-75
2023/04/13 10:29:59;;;;;;;2.27;0.73;;;12.60;93.70;;;;;;8289435;28;20184;-74
2023/04/13 10:34:09;;;;;;;2.63;0.50;;;12.80;51.70;;;;;;8292219;28;20310;-74
2023/04/13 10:38:15;;;;;;;1.40;0.60;;;12.90;29.20;;;;;;8293629;28;20251;-76
2023/04/13 10:42:17;;;;;;;1.30;0.60;;;12.90;4.60;;;;;;8291916;28;20209;-74
2023/04/13 10:46:18;;;;;;;1.03;0.60;;;12.60;1.00;;;;;;8291255;28;20246;-73
2023/04/13 10:50:27;;;;;;;0.67;0.43;;;12.20;1.00;;;;;;8289010;28;20188;-74
2023/04/13 10:54:29;;;;;;;0.83;0.40;;;12.30;19.10;;;;;;8288416;28;20196;-69
2023/04/13 10:58:31;;;;;;;1.87;0.40;;;12.50;18.20;;;;;;8262773;28;20206;-70
2023/04/13 11:02:32;;;;;;;0.47;0.47;;;12.70;6.80;;;;;;8268307;28;20184;-73
2023/04/13 11:06:41;;;;;;;1.77;0.30;;;12.70;1.00;;;;;;8286665;28;20326;-74
2023/04/13 11:10:53;;;;;;;0.90;0.40;;;12.60;1.00;;;;;;8270112;28;20187;-71
2023/04/13 11:14:54;;;;;;;1.03;0.40;;;12.60;1.00;;;;;;8261952;28;20184;-70
2023/04/13 11:19:05;;;;;;;1.60;0.70;;;12.60;1.00;;;;;;8251863;28;20544;-70
2023/04/13 11:23:17;;;;;;;1.13;0.70;;;12.30;1.00;;;;;;8255769;28;20195;-69
2023/04/13 11:27:23;;;;;;;1.87;0.80;;;12.00;1.00;;;;;;8254681;28;20216;-68
2023/04/13 11:31:40;;;;;;;2.47;1.60;;;11.80;1.00;;;;;;8281970;28;20201;-74
2023/04/13 11:35:45;;;;;;;1.93;1.00;;;11.70;1.00;;;;;;8274680;28;20180;-72
2023/04/13 11:39:46;;;;;;;8.77;2.73;;;11.60;1.00;;;;;;8267173;28;20187;-74
2023/04/13 11:43:47;;;;;;;8.50;4.00;;;11.60;1.00;;;;;;8268128;28;20190;-74
2023/04/13 11:47:49;;;;;;;4.70;2.33;;;11.70;13.70;;;;;;8274418;28;20215;-73
2023/04/13 11:51:51;;;;;;;2.03;0.70;;;12.10;2.30;;;;;;8277249;28;20180;-73
2023/04/13 11:55:52;;;;;;;1.23;0.60;;;12.70;1.00;;;;;;8267691;28;20300;-73
2023/04/13 11:59:53;;;;;;;0.90;0.50;;;13.20;1.00;;;;;;8265582;28;20187;-74
2023/04/13 12:04:02;;;;;;;1.20;0.53;;;13.70;1.00;;;;;;8268947;28;20198;-74
2023/04/13 12:08:03;;;;;;;1.17;0.67;;;14.00;1.00;;;;;;8267464;28;20244;-74
2023/04/13 12:12:14;;;;;;;1.43;0.50;;;13.60;1.00;;;;;;8264037;28;20187;-74
2023/04/13 12:16:32;;;;;;;1.00;0.63;;;13.60;1.00;;;;;;8256546;28;20210;-68
2023/04/13 12:20:35;;;;;;;2.07;0.60;;;13.80;1.00;;;;;;8267647;28;20201;-74
2023/04/13 12:24:38;;;;;;;1.03;0.40;;;13.50;1.00;;;;;;8270631;28;20199;-73
2023/04/13 12:28:39;;;;;;;0.87;0.50;;;12.90;1.00;;;;;;8274276;28;20227;-73
2023/04/13 12:32:46;;;;;;;0.60;0.30;;;12.40;1.00;;;;;;8275098;28;20194;-73
2023/04/13 12:36:50;;;;;;;1.03;0.20;;;12.20;1.00;;;;;;8253535;28;20195;-72
2023/04/13 12:41:01;;;;;;;1.20;0.60;;;12.40;1.00;;;;;;8276760;28;20187;-72
2023/04/13 12:45:02;;;;;;;0.73;0.50;;;12.50;1.00;;;;;;8268228;28;20198;-74
2023/04/13 12:49:04;;;;;;;1.90;0.60;;;12.40;1.00;;;;;;8270181;28;20296;-73
2023/04/13 12:53:11;;;;;;;1.70;0.60;;;12.30;1.00;;;;;;8263493;28;20236;-73
2023/04/13 12:57:22;;;;;;;1.53;0.73;;;12.20;1.00;;;;;;8263665;28;20220;-73
2023/04/13 13:01:25;;;;;;;2.10;0.73;;;12.00;1.00;;;;;;8262973;28;20192;-71
2023/04/13 13:05:29;;;;;;;2.03;0.80;;;12.30;1.00;;;;;;8260648;28;20193;-72
2023/04/13 13:09:30;;;;;;;1.47;0.77;;;12.50;1.00;;;;;;8265240;28;20245;-74
2023/04/13 13:13:31;;;;;;;1.53;0.40;;;12.80;1.00;;;;;;8275979;28;20188;-73
2023/04/13 13:17:33;;;;;;;1.33;0.40;;;12.20;1.00;;;;;;8272316;28;20231;-73
2023/04/13 13:21:42;;;;;;;4.40;1.30;;;11.60;1.00;;;;;;8261985;28;20315;-73
2023/04/13 13:25:43;;;;;;;1.60;1.10;;;11.50;1.00;;;;;;8266334;28;20199;-74
2023/04/13 13:29:47;;;;;;;3.07;1.10;;;11.80;1.00;;;;;;8282069;28;20271;-75
2023/04/13 13:33:54;;;;;;;0.57;0.40;;;12.20;1.00;;;;;;8285405;28;20237;-72
2023/04/13 13:37:55;;;;;;;4.03;1.30;;;12.40;1.00;;;;;;8278223;28;20176;-75
2023/04/13 13:41:57;;;;;;;0.73;0.33;;;12.50;1.00;;;;;;8270180;28;20195;-73
2023/04/13 13:45:58;;;;;;;1.43;0.70;;;12.40;1.00;;;;;;8266052;28;20184;-72
2023/04/13 13:49:59;;;;;;;2.73;0.93;;;12.50;1.00;;;;;;8252826;28;20194;-72
2023/04/13 13:54:00;;;;;;;5.07;3.10;;;12.50;1.00;;;;;;8267658;28;20188;-74
2023/04/13 13:58:02;;;;;;;8.43;4.57;;;12.30;1.00;;;;;;8262340;28;20262;-72
2023/04/13 14:02:04;;;;;;;8.20;4.93;;;12.30;1.00;;;;;;8261303;28;20238;-74
2023/04/13 14:06:06;;;;;;;6.00;2.70;;;12.50;1.00;;;;;;8260577;28;20188;-74
2023/04/13 14:10:09;;;;;;;3.47;1.13;;;12.70;1.00;;;;;;8268536;28;20183;-73
2023/04/13 14:14:10;;;;;;;1.60;0.53;;;12.80;1.00;;;;;;8260844;28;20191;-74
2023/04/13 14:18:11;;;;;;;1.93;0.60;;;12.90;1.00;;;;;;8261703;28;20192;-72
2023/04/13 14:22:12;;;;;;;10.43;3.30;;;12.70;1.00;;;;;;8262080;28;20182;-73
2023/04/13 14:26:13;;;;;;;7.40;4.70;;;12.60;1.00;;;;;;8260658;28;20253;-73
2023/04/13 14:30:16;;;;;;;4.93;3.53;;;12.50;1.00;;;;;;8266361;28;20175;-73
2023/04/13 14:34:21;;;;;;;1.70;1.40;;;12.40;1.00;;;;;;8267163;28;20183;-74
2023/04/13 14:38:29;;;;;;;1.83;0.60;;;12.20;1.00;;;;;;8268904;28;20205;-72
2023/04/13 14:42:30;;;;;;;0.97;0.50;;;12.00;1.00;;;;;;8261778;28;20199;-74
2023/04/13 14:46:31;;;;;;;1.00;0.50;;;11.90;1.00;;;;;;8264560;28;20247;-73
2023/04/13 14:50:36;;;;;;;1.23;0.50;;;12.00;1.00;;;;;;8261554;28;20188;-73
2023/04/13 14:54:37;;;;;;;3.93;0.30;;;12.10;1.00;;;;;;8257160;28;20200;-73
2023/04/13 14:58:47;;;;;;;1.23;0.50;;;12.20;1.00;;;;;;8271477;28;20260;-74
2023/04/13 15:02:49;;;;;;;0.43;0.40;;;12.20;1.00;;;;;;8253740;28;20195;-70
2023/04/13 15:06:52;;;;;;;3.27;0.50;;;12.30;1.00;;;;;;8258461;28;20306;-69
2023/04/13 15:10:53;;;;;;;0.67;0.50;;;12.30;1.00;;;;;;8262583;28;20192;-73
2023/04/13 15:14:55;;;;;;;0.60;0.40;;;12.40;1.00;;;;;;8275112;28;20184;-72
2023/04/13 15:18:57;;;;;;;0.93;0.43;;;12.40;1.00;;;;;;8269718;28;20233;-69
2023/04/13 15:22:58;;;;;;;3.10;0.90;;;12.40;1.00;;;;;;8257654;28;20188;-69
2023/04/13 15:26:59;;;;;;;2.00;1.30;;;12.30;1.00;;;;;;8263178;28;20221;-69
2023/04/13 15:31:03;;;;;;;3.00;1.67;;;12.30;1.00;;;;;;8258374;28;20180;-69
2023/04/13 15:35:05;;;;;;;4.33;2.30;;;12.20;1.00;;;;;;8268827;28;20194;-70
2023/04/13 15:39:12;;;;;;;0.93;0.80;;;12.00;1.00;;;;;;8261692;28;20191;-67
2023/04/13 15:43:13;;;;;;;1.43;0.90;;;11.80;1.00;;;;;;8259282;28;20199;-68
2023/04/13 15:47:15;;;;;;;2.30;1.13;;;11.70;1.00;;;;;;8260731;28;20215;-68
2023/04/13 15:51:16;;;;;;;3.33;0.90;;;11.50;1.00;;;;;;8254378;28;20195;-68
2023/04/13 15:55:17;;;;;;;2.50;0.80;;;11.40;1.00;;;;;;8263464;28;20276;-69
2023/04/13 15:59:18;;;;;;;2.63;1.00;;;11.30;1.00;;;;;;8259851;28;20206;-69
2023/04/13 16:03:27;;;;;;;2.57;0.90;;;11.20;1.00;;;;;;8256590;28;20217;-69
2023/04/13 16:07:28;;;;;;;3.30;2.00;;;11.20;1.00;;;;;;8263155;28;20211;-69
2023/04/13 16:11:44;;;;;;;10.30;6.03;;;11.20;1.00;;;;;;8267494;28;20195;-69
2023/04/13 16:15:51;;;;;;;15.20;7.57;;;10.90;7.80;;;;;;8265508;28;20219;-69
2023/04/13 16:19:52;;;;;;;8.00;4.00;;;10.80;20.30;;;;;;8260447;28;20275;-70
2023/04/13 16:23:53;;;;;;;4.93;2.60;;;10.70;37.10;;;;;;8267657;28;20187;-70
2023/04/13 16:27:57;;;;;;;2.17;1.30;;;10.60;37.10;;;;;;8266766;28;20222;-73
2023/04/13 16:32:01;;;;;;;2.13;1.20;;;10.60;38.70;;;;;;8274464;28;20190;-72
2023/04/13 16:36:03;;;;;;;1.93;0.90;;;10.50;57.00;;;;;;8279373;28;20245;-72
2023/04/13 16:40:10;;;;;;;1.20;1.00;;;10.50;65.00;;;;;;8289903;28;20212;-71
2023/04/13 16:44:17;;;;;;;1.20;0.90;;;10.40;68.00;;;;;;8281254;28;20190;-72
2023/04/13 16:48:19;;;;;;;1.83;1.20;;;10.40;80.90;;;;;;8276094;28;20215;-72
2023/04/13 16:52:28;;;;;;;3.00;1.47;;;10.40;90.90;;;;;;8279816;28;20336;-72
2023/04/13 16:56:29;;;;;;;2.53;2.13;;;10.30;94.10;;;;;;8260130;28;20252;-73
2023/04/13 17:00:30;;;;;;;4.00;2.27;;;10.30;98.30;;;;;;8262805;28;20211;-71
2023/04/13 17:04:30;;;;;;;4.03;2.87;;;10.20;98.00;;;;;;8267473;28;20193;-72
2023/04/13 17:08:31;;;;;;;3.90;3.00;;;10.20;98.50;;;;;;8261847;28;20219;-71
2023/04/13 17:12:33;;;;;;;3.47;2.10;;;10.10;99.90;;;;;;8283566;28;20263;-73
2023/04/13 17:16:35;;;;;;;55.03;25.20;;;10.10;99.90;;;;;;8265251;28;20197;-73
2023/04/13 17:20:36;;;;;;;50.27;22.50;;;10.00;99.90;;;;;;8265129;28;20217;-74
2023/04/13 17:24:38;;;;;;;54.67;25.50;;;9.90;99.90;;;;;;8265055;28;20255;-73
2023/04/13 17:28:45;;;;;;;37.23;20.47;;;9.80;99.90;;;;;;8262009;28;20219;-73
2023/04/13 17:32:52;;;;;;;29.87;15.60;;;9.70;99.90;;;;;;8260359;28;20177;-73
2023/04/13 17:37:01;;;;;;;40.93;20.53;;;9.60;99.90;;;;;;8291356;28;20221;-75
2023/04/13 17:41:01;;;;;;;23.60;14.43;;;9.50;99.90;;;;;;8265014;28;20200;-68
2023/04/13 17:45:03;;;;;;;28.57;23.73;;;9.40;99.90;;;;;;8252757;28;20185;-68
2023/04/13 17:49:04;;;;;;;27.93;12.43;;;9.30;99.90;;;;;;8259178;28;20304;-68
2023/04/13 17:53:05;;;;;;;15.57;7.40;;;9.10;99.90;;;;;;8256689;28;20191;-68
2023/04/13 17:57:06;;;;;;;33.40;17.03;;;8.90;99.90;;;;;;8262602;28;20223;-67
2023/04/13 18:01:08;;;;;;;35.23;16.67;;;8.80;99.90;;;;;;8254919;28;20218;-68
2023/04/13 18:05:14;;;;;;;14.07;9.67;;;8.70;99.90;;;;;;8257470;28;20242;-66
2023/04/13 18:09:15;;;;;;;14.97;9.73;;;8.60;99.90;;;;;;8264461;28;20216;-66
2023/04/13 18:13:16;;;;;;;19.20;9.33;;;8.50;1.00;;;;;;8258504;28;20325;-68
2023/04/13 18:17:17;;;;;;;11.33;6.33;;;8.40;1.00;;;;;;8258977;28;20191;-74
2023/04/13 18:21:18;;;;;;;22.60;11.13;;;8.40;1.00;;;;;;8257810;28;20212;-74
2023/04/13 18:25:22;;;;;;;17.23;10.70;;;8.30;1.00;;;;;;8258854;28;20191;-73
2023/04/13 18:29:23;;;;;;;19.77;12.30;;;8.30;1.00;;;;;;8254882;28;20211;-74
2023/04/13 18:33:24;;;;;;;17.70;10.87;;;8.30;1.00;;;;;;8250917;28;20216;-72
2023/04/13 18:37:25;;;;;;;20.10;11.93;;;8.30;1.00;;;;;;8261238;28;20191;-73
2023/04/13 18:41:30;;;;;;;15.53;9.50;;;8.20;1.00;;;;;;8253990;28;20219;-73
2023/04/13 18:45:31;;;;;;;12.17;8.20;;;8.20;1.00;;;;;;8252910;28;20207;-71
2023/04/13 18:49:32;;;;;;;14.97;9.83;;;8.20;1.00;;;;;;8262750;28;20215;-74
2023/04/13 18:53:37;;;;;;;10.13;6.30;;;8.10;1.00;;;;;;8259276;28;20242;-73
2023/04/13 18:57:39;;;;;;;9.23;5.53;;;8.10;1.00;;;;;;8258673;28;20273;-73
2023/04/13 19:01:40;;;;;;;7.80;5.03;;;8.00;1.00;;;;;;8267053;28;20203;-74
2023/04/13 19:05:41;;;;;;;11.17;7.47;;;8.00;1.00;;;;;;8256868;28;20269;-74
2023/04/13 19:09:42;;;;;;;13.67;6.67;;;7.90;1.00;;;;;;8269132;28;20211;-73
2023/04/13 19:13:45;;;;;;;6.17;3.53;;;7.90;1.00;;;;;;8261720;28;20183;-73
2023/04/13 19:17:49;;;;;;;9.37;6.97;;;7.90;1.00;;;;;;8259368;28;20180;-74
2023/04/13 19:21:54;;;;;;;11.40;5.17;;;7.80;1.00;;;;;;8259730;28;20210;-72
2023/04/13 19:25:57;;;;;;;8.43;3.70;;;7.80;6.70;;;;;;8261204;28;20184;-73
2023/04/13 19:30:05;;;;;;;3.33;2.20;;;7.80;27.60;;;;;;8263583;28;20211;-72
2023/04/13 19:34:07;;;;;;;1.77;1.40;;;7.70;47.00;;;;;;8271338;28;20202;-72
2023/04/13 19:38:15;;;;;;;3.47;1.70;;;7.70;96.60;;;;;;8259258;28;20346;-73
2023/04/13 19:42:16;;;;;;;2.53;1.73;;;7.70;99.90;;;;;;8261330;28;20247;-73
2023/04/13 19:46:17;;;;;;;2.23;1.50;;;7.70;99.90;;;;;;8260457;28;20271;-74
2023/04/13 19:50:18;;;;;;;3.00;1.80;;;7.60;99.90;;;;;;8256964;28;20238;-73
2023/04/13 19:54:19;;;;;;;2.90;1.90;;;7.60;99.90;;;;;;8266187;28;20207;-73
2023/04/13 19:58:20;;;;;;;2.33;1.60;;;7.60;99.90;;;;;;8263064;28;20206;-72
2023/04/13 20:02:21;;;;;;;4.30;2.20;;;7.60;99.90;;;;;;8262677;28;20226;-73
2023/04/13 20:06:22;;;;;;;3.93;2.13;;;7.60;99.90;;;;;;8260043;28;20257;-73
2023/04/13 20:10:23;;;;;;;5.03;2.40;;;7.60;99.90;;;;;;8258284;28;20211;-73
2023/04/13 20:14:25;;;;;;;3.93;2.23;;;7.50;99.90;;;;;;8260693;28;20258;-73
2023/04/13 20:18:26;;;;;;;2.73;2.00;;;7.50;99.90;;;;;;8262622;28;20191;-73
2023/04/13 20:22:27;;;;;;;3.83;2.13;;;7.50;1.00;;;;;;8262558;28;20198;-73
2023/04/13 20:26:31;;;;;;;5.30;2.40;;;7.50;1.00;;;;;;8257605;28;20290;-72
2023/04/13 20:30:33;;;;;;;11.47;5.67;;;7.50;1.00;;;;;;8263744;28;20231;-67
2023/04/13 20:34:39;;;;;;;17.77;8.93;;;7.50;1.00;;;;;;8263624;28;20183;-67
2023/04/13 20:38:41;;;;;;;12.73;7.43;;;7.50;1.00;;;;;;8265630;28;20285;-67
2023/04/13 20:42:43;;;;;;;8.47;4.40;;;7.50;1.00;;;;;;8264776;28;20201;-67
2023/04/13 20:46:48;;;;;;;6.53;4.00;;;7.50;1.00;;;;;;8262156;28;20242;-69
2023/04/13 20:50:52;;;;;;;11.13;6.00;;;7.40;1.00;;;;;;8257710;28;20184;-67
2023/04/13 20:54:53;;;;;;;21.07;12.50;;;7.40;22.70;;;;;;8261944;28;20253;-69
2023/04/13 20:58:56;;;;;;;17.73;10.20;;;7.40;48.50;;;;;;8264217;28;20215;-68
2023/04/13 21:03:07;;;;;;;10.13;6.60;;;7.40;99.90;;;;;;8250611;28;20207;-68
2023/04/13 21:07:10;;;;;;;6.97;4.50;;;7.30;99.90;;;;;;8254696;28;20215;-68
2023/04/13 21:11:11;;;;;;;5.67;3.40;;;7.30;99.90;;;;;;8258781;28;20179;-68
2023/04/13 21:15:12;;;;;;;3.13;2.20;;;7.20;1.00;;;;;;8256903;28;20187;-68
2023/04/13 21:19:16;;;;;;;5.67;2.27;;;7.20;1.00;;;;;;8252500;28;20220;-67